createdAt,value
2018-05-06T00:02:27.135Z,94.00
2018-05-06T00:04:54.759Z,94.10
2018-05-06T00:07:22.322Z,94.90
2018-05-06T00:09:49.819Z,94.90
2018-05-06T00:12:18.116Z,95.90
2018-05-06T00:14:46.461Z,96.00
2018-05-06T00:17:14.019Z,96.00
2018-05-06T00:19:41.550Z,96.60
2018-05-06T00:22:09.098Z,96.80
2018-05-06T00:24:36.715Z,97.10
2018-05-06T00:27:05.027Z,97.30
2018-05-06T00:29:32.579Z,97.30
2018-05-06T00:32:00.157Z,97.30
2018-05-06T00:34:27.796Z,97.70
2018-05-06T00:36:55.464Z,97.70
2018-05-06T00:39:22.945Z,97.70
2018-05-06T00:41:50.508Z,97.80
2018-05-06T00:44:18.013Z,97.70
2018-05-06T00:46:45.523Z,98.10
2018-05-06T00:49:13.049Z,98.40
2018-05-06T00:51:40.602Z,98.50
2018-05-06T00:54:20.084Z,98.60
2018-05-06T00:56:47.636Z,98.40
2018-05-06T00:59:15.177Z,97.40
2018-05-06T01:01:42.725Z,97.60
2018-05-06T01:04:10.268Z,98.00
2018-05-06T01:06:37.773Z,97.70
2018-05-06T01:09:05.310Z,98.10
2018-05-06T01:11:33.064Z,98.10
2018-05-06T01:14:00.637Z,98.40
2018-05-06T01:16:28.245Z,99.00
2018-05-06T01:18:56.550Z,99.70
2018-05-06T01:21:24.110Z,99.70
2018-05-06T01:23:51.599Z,99.90
2018-05-06T01:26:19.229Z,99.90
2018-05-06T01:28:46.730Z,99.90
2018-05-06T01:31:14.323Z,99.90
2018-05-06T01:33:42.572Z,99.90
2018-05-06T01:36:10.903Z,99.90
2018-05-06T01:38:38.478Z,99.90
2018-05-06T01:41:06.016Z,99.90
2018-05-06T01:43:33.556Z,99.90
2018-05-06T01:46:01.214Z,99.90
2018-05-06T01:48:28.762Z,99.90
2018-05-06T01:50:57.031Z,99.90
2018-05-06T01:53:25.334Z,99.90
2018-05-06T01:55:52.900Z,99.90
2018-05-06T01:58:20.434Z,99.90
2018-05-06T02:00:47.970Z,99.90
2018-05-06T02:03:15.510Z,99.90
2018-05-06T02:05:43.016Z,99.90
2018-05-06T02:08:10.542Z,99.90
2018-05-06T02:10:38.089Z,99.90
2018-05-06T02:13:05.781Z,99.90
2018-05-06T02:15:34.059Z,99.90
2018-05-06T02:18:02.421Z,99.90
2018-05-06T02:20:30.725Z,99.90
2018-05-06T02:22:58.261Z,99.90
2018-05-06T02:25:26.790Z,99.90
2018-05-06T02:27:54.302Z,99.90
2018-05-06T02:30:22.616Z,99.90
2018-05-06T02:32:50.270Z,99.90
2018-05-06T02:35:17.765Z,99.90
2018-05-06T02:37:45.360Z,99.90
2018-05-06T02:40:12.862Z,99.90
2018-05-06T02:42:40.476Z,99.90
2018-05-06T02:45:08.743Z,99.90
2018-05-06T02:47:37.017Z,99.90
2018-05-06T02:50:04.579Z,99.90
2018-05-06T02:52:32.146Z,99.90
2018-05-06T02:55:00.435Z,99.90
2018-05-06T02:57:27.995Z,99.90
2018-05-06T02:59:55.519Z,99.90
2018-05-06T03:02:23.094Z,99.90
2018-05-06T03:04:51.092Z,99.90
2018-05-06T03:07:18.619Z,99.90
2018-05-06T03:09:46.162Z,99.90
2018-05-06T03:12:13.763Z,99.90
2018-05-06T03:14:41.408Z,99.90
2018-05-06T03:17:08.968Z,99.90
2018-05-06T03:19:37.225Z,99.90
2018-05-06T03:22:05.618Z,99.90
2018-05-06T03:24:33.931Z,99.90
2018-05-06T03:27:01.573Z,99.90
2018-05-06T03:29:29.053Z,99.90
2018-05-06T03:31:56.582Z,99.90
2018-05-06T03:34:24.107Z,99.90
2018-05-06T03:36:52.373Z,99.90
2018-05-06T03:39:19.891Z,99.90
2018-05-06T03:41:47.388Z,99.90
2018-05-06T03:44:14.980Z,99.90
2018-05-06T03:46:42.519Z,99.90
2018-05-06T03:49:10.810Z,99.90
2018-05-06T03:51:38.329Z,99.90
2018-05-06T03:54:05.838Z,99.90
2018-05-06T03:56:54.852Z,99.90
2018-05-06T03:59:34.192Z,99.90
2018-05-06T04:05:10.656Z,99.90
2018-05-06T04:07:38.253Z,99.90
2018-05-06T04:10:06.664Z,99.90
2018-05-06T04:12:34.369Z,99.90
2018-05-06T04:15:01.914Z,99.90
2018-05-06T04:17:29.446Z,99.90
2018-05-06T04:19:56.977Z,99.90
2018-05-06T04:22:24.521Z,99.90
2018-05-06T04:24:52.101Z,99.90
2018-05-06T04:27:19.610Z,99.90
2018-05-06T04:29:47.231Z,99.90
2018-05-06T04:32:14.735Z,99.90
2018-05-06T04:34:42.291Z,99.90
2018-05-06T04:37:09.825Z,99.90
2018-05-06T04:39:37.328Z,99.90
2018-05-06T04:42:05.705Z,99.90
2018-05-06T04:44:34.036Z,99.90
2018-05-06T04:47:01.673Z,99.90
2018-05-06T04:49:29.558Z,99.90
2018-05-06T04:51:57.072Z,99.90
2018-05-06T04:54:24.694Z,99.90
2018-05-06T04:56:52.556Z,99.90
2018-05-06T04:59:20.080Z,99.90
2018-05-06T05:01:47.612Z,99.90
2018-05-06T05:04:15.934Z,99.90
2018-05-06T05:06:43.675Z,99.90
2018-05-06T05:09:11.307Z,99.90
2018-05-06T05:11:39.568Z,99.90
2018-05-06T05:14:07.867Z,99.90
2018-05-06T05:16:36.168Z,99.10
2018-05-06T05:19:03.677Z,99.10
2018-05-06T05:21:31.230Z,97.00
2018-05-06T05:23:59.537Z,95.80
2018-05-06T05:26:27.127Z,95.80
2018-05-06T05:28:54.673Z,97.90
2018-05-06T05:31:22.538Z,97.80
2018-05-06T05:33:50.044Z,98.90
2018-05-06T05:36:17.575Z,98.60
2018-05-06T05:38:45.137Z,98.40
2018-05-06T05:41:12.672Z,97.90
2018-05-06T05:43:40.192Z,97.20
2018-05-06T05:46:08.554Z,95.70
2018-05-06T05:48:36.178Z,95.70
2018-05-06T05:51:03.689Z,96.20
2018-05-06T05:53:32.180Z,97.50
2018-05-06T05:56:00.461Z,96.40
2018-05-06T05:58:27.966Z,96.40
2018-05-06T06:00:55.565Z,97.40
2018-05-06T06:03:23.825Z,97.10
2018-05-06T06:05:51.337Z,97.10
2018-05-06T06:08:18.847Z,97.30
2018-05-06T06:10:47.152Z,98.10
2018-05-06T06:13:14.666Z,98.00
2018-05-06T06:15:42.219Z,97.10
2018-05-06T06:18:09.743Z,96.80
2018-05-06T06:20:37.293Z,98.00
2018-05-06T06:23:04.846Z,96.90
2018-05-06T06:25:32.965Z,96.60
2018-05-06T06:28:00.487Z,97.30
2018-05-06T06:30:28.037Z,97.80
2018-05-06T06:32:55.635Z,99.00
2018-05-06T06:35:23.109Z,99.70
2018-05-06T06:37:50.717Z,99.30
2018-05-06T06:40:18.286Z,99.10
2018-05-06T06:42:45.901Z,99.20
2018-05-06T06:45:14.280Z,98.40
2018-05-06T06:47:42.574Z,96.90
2018-05-06T06:50:10.140Z,96.90
2018-05-06T06:52:37.647Z,94.20
2018-05-06T06:55:05.217Z,94.30
2018-05-06T06:57:33.497Z,96.20
2018-05-06T07:00:01.798Z,97.20
2018-05-06T07:02:29.326Z,97.10
2018-05-06T07:04:57.645Z,92.00
2018-05-06T07:07:25.212Z,91.90
2018-05-06T07:09:52.732Z,91.40
2018-05-06T07:12:21.265Z,87.70
2018-05-06T07:14:48.797Z,87.60
2018-05-06T07:17:16.349Z,85.60
2018-05-06T07:19:43.867Z,76.30
2018-05-06T07:22:11.432Z,74.80
2018-05-06T07:24:40.270Z,68.50
2018-05-06T07:27:07.805Z,68.60
2018-05-06T07:29:35.371Z,65.00
2018-05-06T07:32:02.885Z,65.00
2018-05-06T07:34:30.438Z,63.80
2018-05-06T07:36:58.020Z,65.80
2018-05-06T07:39:25.598Z,62.80
2018-05-06T07:41:53.873Z,67.30
2018-05-06T07:44:21.451Z,67.20
2018-05-06T07:46:48.966Z,62.60
2018-05-06T07:49:17.289Z,66.70
2018-05-06T07:51:44.834Z,66.70
2018-05-06T07:54:12.341Z,66.30
2018-05-06T07:56:39.866Z,66.20
2018-05-06T07:59:07.514Z,64.90
2018-05-06T08:01:35.019Z,66.50
2018-05-06T08:04:02.561Z,70.40
2018-05-06T08:06:30.116Z,71.40
2018-05-06T08:08:57.611Z,63.10
2018-05-06T08:11:26.005Z,62.00
2018-05-06T08:13:54.292Z,61.70
2018-05-06T08:16:21.886Z,61.70
2018-05-06T08:18:49.385Z,66.50
2018-05-06T08:21:17.751Z,64.00
2018-05-06T08:23:46.068Z,58.50
2018-05-06T08:26:13.676Z,58.40
2018-05-06T08:28:41.204Z,58.80
2018-05-06T08:31:08.995Z,56.60
2018-05-06T08:33:36.557Z,56.50
2018-05-06T08:36:04.099Z,56.20
2018-05-06T08:38:31.696Z,59.70
2018-05-06T08:40:59.292Z,63.40
2018-05-06T08:43:26.825Z,59.20
2018-05-06T08:45:54.427Z,56.20
2018-05-06T08:48:23.499Z,56.20
2018-05-06T08:50:51.057Z,56.20
2018-05-06T08:53:18.602Z,54.70
2018-05-06T08:55:46.404Z,54.20
2018-05-06T08:58:14.065Z,53.10
2018-05-06T09:00:41.693Z,53.30
2018-05-06T09:03:09.205Z,54.50
2018-05-06T09:05:36.933Z,51.50
2018-05-06T09:08:04.465Z,50.00
2018-05-06T09:10:31.977Z,51.60
2018-05-06T09:12:59.501Z,51.20
2018-05-06T09:15:27.153Z,53.30
2018-05-06T09:17:54.669Z,53.90
2018-05-06T09:20:22.955Z,49.80
2018-05-06T09:22:51.300Z,50.70
2018-05-06T09:25:18.898Z,50.70
2018-05-06T09:27:47.161Z,48.10
2018-05-06T09:30:15.544Z,46.00
2018-05-06T09:32:43.928Z,45.40
2018-05-06T09:35:12.213Z,46.50
2018-05-06T09:37:39.788Z,46.50
2018-05-06T09:40:08.066Z,46.60
2018-05-06T09:42:35.659Z,46.60
2018-05-06T09:45:03.914Z,46.80
2018-05-06T09:47:31.571Z,46.70
2018-05-06T09:49:59.120Z,47.40
2018-05-06T09:52:26.637Z,45.80
2018-05-06T09:54:54.883Z,45.30
2018-05-06T09:57:22.419Z,45.20
2018-05-06T09:59:49.986Z,46.00
2018-05-06T10:02:17.542Z,43.90
2018-05-06T10:04:46.559Z,44.00
2018-05-06T10:07:14.125Z,42.90
2018-05-06T10:09:41.729Z,42.80
2018-05-06T10:12:09.256Z,41.30
2018-05-06T10:14:37.552Z,42.10
2018-05-06T10:17:05.123Z,42.10
2018-05-06T10:19:33.429Z,40.90
2018-05-06T10:22:00.922Z,39.80
2018-05-06T10:24:29.639Z,39.70
2018-05-06T10:26:57.144Z,39.70
2018-05-06T10:29:24.681Z,38.50
2018-05-06T10:31:52.217Z,40.40
2018-05-06T10:34:19.740Z,41.10
2018-05-06T10:36:48.049Z,40.70
2018-05-06T10:39:15.562Z,40.70
2018-05-06T10:41:44.010Z,41.50
2018-05-06T10:44:11.685Z,41.50
2018-05-06T10:46:39.093Z,41.70
2018-05-06T10:49:06.739Z,41.90
2018-05-06T10:51:34.319Z,41.30
2018-05-06T10:54:01.813Z,40.00
2018-05-06T10:56:29.546Z,39.40
2018-05-06T10:58:57.110Z,40.10
2018-05-06T11:01:24.618Z,40.60
2018-05-06T11:03:52.386Z,40.40
2018-05-06T11:06:20.689Z,41.70
2018-05-06T11:08:48.229Z,41.60
2018-05-06T11:11:15.763Z,41.60
2018-05-06T11:13:44.097Z,41.00
2018-05-06T11:16:11.653Z,40.90
2018-05-06T11:18:39.458Z,40.10
2018-05-06T11:21:06.985Z,39.80
2018-05-06T11:23:34.589Z,40.10
2018-05-06T11:26:02.972Z,41.20
2018-05-06T11:28:31.305Z,41.40
2018-05-06T11:30:58.825Z,41.30
2018-05-06T11:33:26.525Z,40.20
2018-05-06T11:35:53.987Z,41.40
2018-05-06T11:38:21.506Z,42.00
2018-05-06T11:40:49.092Z,42.20
2018-05-06T11:43:16.629Z,41.60
2018-05-06T11:45:44.117Z,41.90
2018-05-06T11:48:12.544Z,40.60
2018-05-06T11:50:39.920Z,40.50
2018-05-06T11:53:07.517Z,40.30
2018-05-06T11:55:35.033Z,39.70
2018-05-06T11:58:02.606Z,39.90
2018-05-06T12:00:30.231Z,41.10
2018-05-06T12:02:58.549Z,41.50
2018-05-06T12:05:26.068Z,41.40
2018-05-06T12:07:54.335Z,42.10
2018-05-06T12:10:22.685Z,42.50
2018-05-06T12:12:50.202Z,42.50
2018-05-06T12:15:17.714Z,42.20
2018-05-06T12:17:45.270Z,41.90
2018-05-06T12:20:13.591Z,42.20
2018-05-06T12:22:41.081Z,42.10
2018-05-06T12:25:10.241Z,41.90
2018-05-06T12:27:37.902Z,41.90
2018-05-06T12:30:05.507Z,41.40
2018-05-06T12:32:34.555Z,41.90
2018-05-06T12:35:02.089Z,41.80
2018-05-06T12:37:29.617Z,41.60
2018-05-06T12:39:57.127Z,41.30
2018-05-06T12:42:24.909Z,41.20
2018-05-06T12:44:52.443Z,41.50
2018-05-06T12:47:19.981Z,42.10
2018-05-06T12:49:48.333Z,42.00
2018-05-06T12:52:16.648Z,41.90
2018-05-06T12:54:44.161Z,41.70
2018-05-06T12:57:11.800Z,41.40
2018-05-06T12:59:39.312Z,41.20
2018-05-06T13:02:07.606Z,41.10
2018-05-06T13:04:35.183Z,41.10
2018-05-06T13:07:02.717Z,40.30
2018-05-06T13:09:30.228Z,40.00
2018-05-06T13:11:58.591Z,40.90
2018-05-06T13:14:26.118Z,40.90
2018-05-06T13:16:53.968Z,40.30
2018-05-06T13:19:21.512Z,41.90
2018-05-06T13:21:49.826Z,40.30
2018-05-06T13:24:17.362Z,39.80
2018-05-06T13:26:44.897Z,40.50
2018-05-06T13:29:13.162Z,40.70
2018-05-06T13:31:42.221Z,41.80
2018-05-06T13:34:09.769Z,41.80
2018-05-06T13:36:37.292Z,41.30
2018-05-06T13:39:05.583Z,40.60
2018-05-06T13:41:33.134Z,40.50
2018-05-06T13:44:00.683Z,40.00
2018-05-06T13:46:28.223Z,39.60
2018-05-06T13:48:55.764Z,40.10
2018-05-06T13:51:23.306Z,40.70
2018-05-06T13:53:50.846Z,40.10
2018-05-06T13:56:18.465Z,39.50
2018-05-06T13:58:46.921Z,39.10
2018-05-06T14:01:14.416Z,39.10
2018-05-06T14:03:42.624Z,39.30
2018-05-06T14:06:10.252Z,38.90
2018-05-06T14:08:37.821Z,38.90
2018-05-06T14:11:06.257Z,38.50
2018-05-06T14:13:33.714Z,38.50
2018-05-06T14:16:02.162Z,38.70
2018-05-06T14:18:29.591Z,38.70
2018-05-06T14:20:57.151Z,38.80
2018-05-06T14:23:24.658Z,39.30
2018-05-06T14:25:52.252Z,38.80
2018-05-06T14:28:19.826Z,39.50
2018-05-06T14:30:47.395Z,38.60
2018-05-06T14:33:14.961Z,37.30
2018-05-06T14:35:42.518Z,37.60
2018-05-06T14:38:10.040Z,38.50
2018-05-06T14:40:38.329Z,38.20
2018-05-06T14:43:06.225Z,38.10
2018-05-06T14:45:34.437Z,38.80
2018-05-06T14:48:13.895Z,38.80
2018-05-06T14:50:41.449Z,39.80
2018-05-06T14:53:09.774Z,38.30
2018-05-06T14:55:37.547Z,38.60
2018-05-06T14:58:05.065Z,39.40
2018-05-06T15:00:32.610Z,39.40
2018-05-06T15:03:00.140Z,39.00
2018-05-06T15:05:27.670Z,39.20
2018-05-06T15:07:55.193Z,38.40
2018-05-06T15:10:23.588Z,38.40
2018-05-06T15:12:51.071Z,38.30
2018-05-06T15:15:18.676Z,38.40
2018-05-06T15:17:47.062Z,38.00
2018-05-06T15:20:14.763Z,37.90
2018-05-06T15:22:42.331Z,38.70
2018-05-06T15:25:09.993Z,38.20
2018-05-06T15:27:37.537Z,38.20
2018-05-06T15:30:05.102Z,38.10
2018-05-06T15:32:32.592Z,38.40
2018-05-06T15:35:00.945Z,38.10
2018-05-06T15:37:28.522Z,38.10
2018-05-06T15:39:56.042Z,37.70
2018-05-06T15:42:23.645Z,38.00
2018-05-06T15:44:51.225Z,38.40
2018-05-06T15:47:18.725Z,38.30
2018-05-06T15:49:46.273Z,38.60
2018-05-06T15:52:13.821Z,38.90
2018-05-06T15:54:41.371Z,38.10
2018-05-06T15:57:09.014Z,38.20
2018-05-06T15:59:36.701Z,38.40
2018-05-06T16:05:02.143Z,38.30
2018-05-06T16:07:29.679Z,38.10
2018-05-06T16:09:57.240Z,38.60
2018-05-06T16:12:24.806Z,38.40
2018-05-06T16:14:52.358Z,38.60
2018-05-06T16:17:19.983Z,38.60
2018-05-06T16:19:48.602Z,38.70
2018-05-06T16:22:16.347Z,38.60
2018-05-06T16:24:43.866Z,38.60
2018-05-06T16:27:11.478Z,38.80
2018-05-06T16:29:39.155Z,38.70
2018-05-06T16:32:06.599Z,38.80
2018-05-06T16:34:34.084Z,39.20
2018-05-06T16:37:01.724Z,38.70
2018-05-06T16:39:29.304Z,38.60
2018-05-06T16:41:57.007Z,39.10
2018-05-06T16:44:25.300Z,40.80
2018-05-06T16:46:52.874Z,40.20
2018-05-06T16:49:20.396Z,40.60
2018-05-06T16:51:47.977Z,41.00
2018-05-06T16:54:15.525Z,41.40
2018-05-06T16:56:43.041Z,41.40
2018-05-06T16:59:10.721Z,41.40
2018-05-06T17:01:38.280Z,40.40
2018-05-06T17:04:05.887Z,40.90
2018-05-06T17:06:33.401Z,41.20
2018-05-06T17:09:01.762Z,42.60
2018-05-06T17:11:29.358Z,42.50
2018-05-06T17:13:56.916Z,42.00
2018-05-06T17:16:25.217Z,42.00
2018-05-06T17:18:52.801Z,42.00
2018-05-06T17:21:20.366Z,42.30
2018-05-06T17:23:47.916Z,42.50
2018-05-06T17:26:15.443Z,42.30
2018-05-06T17:28:43.791Z,42.70
2018-05-06T17:31:12.105Z,42.70
2018-05-06T17:33:39.603Z,42.60
2018-05-06T17:36:07.241Z,42.60
2018-05-06T17:38:34.786Z,43.30
2018-05-06T17:41:02.349Z,43.30
2018-05-06T17:43:29.860Z,43.00
2018-05-06T17:45:58.229Z,43.70
2018-05-06T17:48:26.560Z,43.40
2018-05-06T17:50:54.210Z,43.40
2018-05-06T17:53:21.729Z,43.50
2018-05-06T17:55:50.035Z,43.30
2018-05-06T17:58:18.424Z,43.80
2018-05-06T18:00:45.940Z,43.70
2018-05-06T18:03:14.248Z,44.30
2018-05-06T18:05:42.002Z,44.30
2018-05-06T18:08:09.557Z,43.90
2018-05-06T18:10:37.114Z,44.00
2018-05-06T18:13:04.682Z,44.30
2018-05-06T18:15:32.297Z,44.40
2018-05-06T18:17:59.837Z,44.60
2018-05-06T18:20:27.398Z,44.80
2018-05-06T18:22:54.920Z,45.00
2018-05-06T18:25:22.836Z,45.30
2018-05-06T18:27:50.388Z,45.50
2018-05-06T18:30:18.577Z,45.20
2018-05-06T18:32:46.814Z,45.70
2018-05-06T18:35:15.001Z,45.90
2018-05-06T18:37:42.988Z,46.10
2018-05-06T18:40:10.932Z,46.30
2018-05-06T18:42:39.609Z,46.20
2018-05-06T18:45:07.508Z,46.50
2018-05-06T18:47:35.151Z,46.60
2018-05-06T18:50:02.693Z,46.40
2018-05-06T18:52:30.335Z,46.70
2018-05-06T18:54:58.004Z,46.80
2018-05-06T18:57:25.867Z,46.80
2018-05-06T18:59:54.169Z,47.10
2018-05-06T19:02:21.724Z,47.00
2018-05-06T19:04:49.250Z,47.10
2018-05-06T19:07:16.758Z,47.60
2018-05-06T19:09:44.365Z,47.80
2018-05-06T19:12:11.870Z,48.20
2018-05-06T19:14:39.395Z,47.70
2018-05-06T19:17:06.974Z,48.00
2018-05-06T19:19:34.498Z,48.20
2018-05-06T19:22:02.103Z,48.40
2018-05-06T19:24:30.453Z,48.80
2018-05-06T19:26:58.009Z,48.80
2018-05-06T19:29:25.554Z,48.80
2018-05-06T19:31:53.052Z,49.00
2018-05-06T19:34:20.675Z,49.40
2018-05-06T19:36:48.231Z,49.60
2018-05-06T19:39:15.865Z,49.80
2018-05-06T19:41:44.242Z,50.40
2018-05-06T19:44:12.542Z,50.60
2018-05-06T19:46:40.118Z,50.50
2018-05-06T19:49:07.674Z,50.80
2018-05-06T19:51:35.219Z,50.90
2018-05-06T19:54:02.776Z,50.90
2018-05-06T19:56:30.296Z,51.40
2018-05-06T19:58:58.586Z,51.40
2018-05-06T20:01:26.123Z,51.40
2018-05-06T20:03:54.381Z,52.20
2018-05-06T20:06:21.920Z,52.00
2018-05-06T20:08:49.448Z,52.20
2018-05-06T20:11:17.014Z,52.80
2018-05-06T20:13:44.511Z,53.20
2018-05-06T20:16:12.124Z,53.30
2018-05-06T20:18:40.407Z,53.90
2018-05-06T20:21:08.290Z,53.90
2018-05-06T20:23:35.786Z,54.20
2018-05-06T20:26:03.386Z,54.40
2018-05-06T20:28:30.913Z,54.60
2018-05-06T20:30:59.222Z,55.50
2018-05-06T20:33:26.744Z,55.50
2018-05-06T20:35:55.042Z,55.90
2018-05-06T20:38:22.669Z,55.90
2018-05-06T20:40:50.165Z,56.40
2018-05-06T20:43:17.712Z,56.50
2018-05-06T20:45:45.592Z,56.90
2018-05-06T20:48:13.153Z,57.20
2018-05-06T20:50:40.697Z,57.80
2018-05-06T20:53:08.293Z,58.00
2018-05-06T20:55:35.804Z,58.30
2018-05-06T20:58:04.094Z,58.70
2018-05-06T21:00:31.614Z,58.80
2018-05-06T21:02:59.151Z,59.20
2018-05-06T21:05:26.713Z,59.30
2018-05-06T21:07:54.215Z,59.90
2018-05-06T21:10:22.594Z,61.00
2018-05-06T21:12:50.081Z,61.00
2018-05-06T21:15:17.629Z,61.90
2018-05-06T21:17:45.430Z,62.10
2018-05-06T21:20:12.951Z,62.00
2018-05-06T21:22:40.480Z,62.20
2018-05-06T21:25:08.866Z,63.10
2018-05-06T21:27:37.274Z,63.80
2018-05-06T21:30:05.553Z,65.00
2018-05-06T21:32:33.101Z,65.00
2018-05-06T21:35:00.702Z,65.70
2018-05-06T21:37:29.376Z,67.10
2018-05-06T21:39:57.974Z,67.00
2018-05-06T21:42:25.507Z,68.20
2018-05-06T21:44:53.208Z,69.60
2018-05-06T21:47:21.393Z,71.50
2018-05-06T21:49:49.697Z,72.30
2018-05-06T21:52:17.220Z,72.30
2018-05-06T21:54:45.518Z,74.50
2018-05-06T21:57:13.125Z,74.40
2018-05-06T21:59:40.661Z,75.90
2018-05-06T22:02:08.220Z,77.50
2018-05-06T22:04:35.742Z,78.20
2018-05-06T22:07:03.318Z,78.80
2018-05-06T22:09:30.987Z,80.00
2018-05-06T22:11:58.507Z,80.70
2018-05-06T22:14:26.864Z,82.90
2018-05-06T22:16:54.435Z,82.90
2018-05-06T22:19:21.956Z,83.20
2018-05-06T22:21:49.549Z,83.90
2018-05-06T22:24:17.137Z,84.90
2018-05-06T22:26:44.644Z,85.70
2018-05-06T22:29:12.198Z,86.00
2018-05-06T22:31:39.735Z,87.00
2018-05-06T22:34:07.341Z,87.10
2018-05-06T22:36:34.868Z,87.50
2018-05-06T22:39:02.385Z,88.30
2018-05-06T22:41:29.945Z,88.50
2018-05-06T22:43:57.519Z,88.50
2018-05-06T22:46:25.177Z,89.60
2018-05-06T22:48:52.694Z,89.70
2018-05-06T22:51:20.256Z,89.40
2018-05-06T22:53:48.643Z,90.30
2018-05-06T22:56:17.170Z,90.50
2018-05-06T22:58:44.747Z,90.50
2018-05-06T23:01:12.266Z,90.70
2018-05-06T23:03:39.966Z,91.00
2018-05-06T23:06:07.486Z,91.20
2018-05-06T23:08:35.029Z,91.40
2018-05-06T23:11:03.323Z,91.70
2018-05-06T23:13:30.918Z,92.00
2018-05-06T23:15:58.444Z,92.10
2018-05-06T23:18:26.281Z,92.30
2018-05-06T23:20:54.624Z,92.70
2018-05-06T23:23:22.088Z,92.60
2018-05-06T23:25:49.606Z,93.00
2018-05-06T23:28:17.129Z,93.00
2018-05-06T23:30:44.685Z,93.20
2018-05-06T23:33:13.115Z,93.80
2018-05-06T23:35:41.001Z,93.80
2018-05-06T23:38:08.639Z,94.20
2018-05-06T23:40:36.214Z,94.30
2018-05-06T23:43:03.794Z,94.60
2018-05-06T23:45:32.301Z,94.60
2018-05-06T23:47:59.928Z,94.60
2018-05-06T23:50:28.339Z,95.00
2018-05-06T23:52:55.977Z,95.00
2018-05-06T23:55:23.561Z,95.10
2018-05-06T23:57:51.078Z,95.10
